createdAt,value
2023-03-05T00:01:13.594Z,22.20
2023-03-05T00:03:40.605Z,21.97
2023-03-05T00:06:08.299Z,21.13
2023-03-05T00:08:35.117Z,22.13
2023-03-05T00:11:10.425Z,20.83
2023-03-05T00:13:37.999Z,21.97
2023-03-05T00:16:07.411Z,22.77
2023-03-05T00:18:34.710Z,21.80
2023-03-05T00:21:01.564Z,22.47
2023-03-05T00:23:28.391Z,23.20
2023-03-05T00:25:55.313Z,22.73
2023-03-05T00:28:22.206Z,21.53
2023-03-05T00:30:49.002Z,19.87
2023-03-05T00:33:15.809Z,22.07
2023-03-05T00:35:45.574Z,22.33
2023-03-05T00:38:13.482Z,21.17
2023-03-05T00:40:41.455Z,21.27
2023-03-05T00:43:09.515Z,21.57
2023-03-05T00:45:36.925Z,22.67
2023-03-05T00:48:04.345Z,20.50
2023-03-05T00:50:31.123Z,22.20
2023-03-05T00:52:58.038Z,22.03
2023-03-05T00:55:24.901Z,24.47
2023-03-05T00:57:51.729Z,22.03
2023-03-05T01:00:18.779Z,22.07
2023-03-05T01:02:45.933Z,22.97
2023-03-05T01:05:13.766Z,22.10
2023-03-05T01:07:41.374Z,21.60
2023-03-05T01:10:09.670Z,22.27
2023-03-05T01:12:36.456Z,20.63
2023-03-05T01:15:04.660Z,20.20
2023-03-05T01:17:31.918Z,21.37
2023-03-05T01:19:58.754Z,21.70
2023-03-05T01:22:25.611Z,21.43
2023-03-05T01:24:52.427Z,21.73
2023-03-05T01:27:19.218Z,20.67
2023-03-05T01:29:45.905Z,20.00
2023-03-05T01:32:12.905Z,21.63
2023-03-05T01:34:41.909Z,20.90
2023-03-05T01:37:09.701Z,21.03
2023-03-05T01:39:36.615Z,21.60
2023-03-05T01:42:04.787Z,24.37
2023-03-05T01:44:32.837Z,21.97
2023-03-05T01:46:59.687Z,22.37
2023-03-05T01:49:32.402Z,21.50
2023-03-05T01:52:11.078Z,21.77
2023-03-05T01:54:45.430Z,21.63
2023-03-05T01:57:23.106Z,21.07
2023-03-05T01:59:56.194Z,21.57
2023-03-05T02:02:23.062Z,22.37
2023-03-05T02:04:59.137Z,22.10
2023-03-05T02:07:26.307Z,20.73
2023-03-05T02:09:53.114Z,22.27
2023-03-05T02:12:20.093Z,21.63
2023-03-05T02:14:50.549Z,21.60
2023-03-05T02:17:17.471Z,20.90
2023-03-05T02:19:52.747Z,21.07
2023-03-05T02:22:22.101Z,21.13
2023-03-05T02:24:49.183Z,19.63
2023-03-05T02:27:16.887Z,20.20
2023-03-05T02:29:46.433Z,19.60
2023-03-05T02:32:13.847Z,20.47
2023-03-05T02:34:41.042Z,18.50
2023-03-05T02:37:09.340Z,19.23
2023-03-05T02:39:36.664Z,21.27
2023-03-05T02:42:03.640Z,19.40
2023-03-05T02:44:30.528Z,20.13
2023-03-05T02:46:57.278Z,18.83
2023-03-05T02:49:24.104Z,19.97
2023-03-05T02:51:50.888Z,19.80
2023-03-05T02:54:17.877Z,20.50
2023-03-05T02:56:44.688Z,20.60
2023-03-05T02:59:11.441Z,19.30
2023-03-05T03:01:38.235Z,19.10
2023-03-05T03:04:05.127Z,20.53
2023-03-05T03:06:31.852Z,20.30
2023-03-05T03:08:58.598Z,21.57
2023-03-05T03:11:25.339Z,21.17
2023-03-05T03:13:52.081Z,21.23
2023-03-05T03:16:19.105Z,21.70
2023-03-05T03:18:47.536Z,21.13
2023-03-05T03:21:23.321Z,20.97
2023-03-05T03:23:50.230Z,22.03
2023-03-05T03:26:17.446Z,21.63
2023-03-05T03:28:44.871Z,21.83
2023-03-05T03:31:11.797Z,21.83
2023-03-05T03:33:38.626Z,21.27
2023-03-05T03:36:06.473Z,22.83
2023-03-05T03:38:33.440Z,20.87
2023-03-05T03:41:00.131Z,23.23
2023-03-05T03:43:26.983Z,21.50
2023-03-05T03:45:53.802Z,22.20
2023-03-05T03:48:20.607Z,21.77
2023-03-05T03:50:47.383Z,21.67
2023-03-05T03:53:14.464Z,21.67
2023-03-05T03:55:51.092Z,20.80
2023-03-05T03:58:17.917Z,21.27
2023-03-05T04:00:44.688Z,20.57
2023-03-05T04:03:11.428Z,20.53
2023-03-05T04:05:38.159Z,21.50
2023-03-05T04:08:05.768Z,19.70
2023-03-05T04:10:32.589Z,18.90
2023-03-05T04:12:59.311Z,20.07
2023-03-05T04:15:26.047Z,19.37
2023-03-05T04:17:52.886Z,19.33
2023-03-05T04:20:19.738Z,21.10
2023-03-05T04:22:46.525Z,20.50
2023-03-05T04:25:13.327Z,19.87
2023-03-05T04:27:40.480Z,20.53
2023-03-05T04:30:08.955Z,20.33
2023-03-05T04:32:35.838Z,21.90
2023-03-05T04:35:02.916Z,20.17
2023-03-05T04:37:29.778Z,20.37
2023-03-05T04:39:56.659Z,21.60
2023-03-05T04:42:23.472Z,20.97
2023-03-05T04:44:50.859Z,20.50
2023-03-05T04:47:18.972Z,19.97
2023-03-05T04:49:46.085Z,20.20
2023-03-05T04:52:14.311Z,18.37
2023-03-05T04:54:41.140Z,21.10
2023-03-05T04:57:09.284Z,19.93
2023-03-05T04:59:37.786Z,18.57
2023-03-05T05:02:05.197Z,17.37
2023-03-05T05:04:33.267Z,18.97
2023-03-05T05:07:00.053Z,19.77
2023-03-05T05:09:26.844Z,19.03
2023-03-05T05:11:54.313Z,18.53
2023-03-05T05:14:21.609Z,20.00
2023-03-05T05:16:48.356Z,19.07
2023-03-05T05:19:15.446Z,18.90
2023-03-05T05:21:42.505Z,18.10
2023-03-05T05:24:09.473Z,18.30
2023-03-05T05:26:36.332Z,18.73
2023-03-05T05:29:03.222Z,18.43
2023-03-05T05:31:29.987Z,18.40
2023-03-05T05:33:56.923Z,17.83
2023-03-05T05:36:23.994Z,18.43
2023-03-05T05:38:50.997Z,18.43
2023-03-05T05:41:19.432Z,18.07
2023-03-05T05:43:46.541Z,18.10
2023-03-05T05:46:16.567Z,18.77
2023-03-05T05:48:44.032Z,18.23
2023-03-05T05:51:17.353Z,17.10
2023-03-05T05:53:44.902Z,18.17
2023-03-05T05:56:12.875Z,18.60
2023-03-05T05:58:40.985Z,18.03
2023-03-05T06:01:18.405Z,17.10
2023-03-05T06:03:45.612Z,18.67
2023-03-05T06:06:15.002Z,17.93
2023-03-05T06:08:42.362Z,18.43
2023-03-05T06:11:09.833Z,18.83
2023-03-05T06:13:36.651Z,17.50
2023-03-05T06:16:06.795Z,18.73
2023-03-05T06:18:34.502Z,19.03
2023-03-05T06:21:04.746Z,19.77
2023-03-05T06:23:31.981Z,18.63
2023-03-05T06:26:04.644Z,17.90
2023-03-05T06:28:32.299Z,17.53
2023-03-05T06:31:07.780Z,18.50
2023-03-05T06:33:35.451Z,19.03
2023-03-05T06:36:10.810Z,18.63
2023-03-05T06:38:38.436Z,16.57
2023-03-05T06:41:09.345Z,17.00
2023-03-05T06:43:38.636Z,18.43
2023-03-05T06:46:32.833Z,18.10
2023-03-05T06:49:01.940Z,18.10
2023-03-05T06:51:31.531Z,19.63
2023-03-05T06:54:08.630Z,18.93
2023-03-05T06:56:37.288Z,19.13
2023-03-05T06:59:04.790Z,18.70
2023-03-05T07:01:31.693Z,18.37
2023-03-05T07:04:00.335Z,18.67
2023-03-05T07:06:27.799Z,23.07
2023-03-05T07:08:56.307Z,24.00
2023-03-05T07:11:24.097Z,23.10
2023-03-05T07:13:51.556Z,20.43
2023-03-05T07:16:24.283Z,19.90
2023-03-05T07:18:51.449Z,19.37
2023-03-05T07:21:20.962Z,20.10
2023-03-05T07:23:47.905Z,21.10
2023-03-05T07:26:15.972Z,20.03
2023-03-05T07:28:43.510Z,20.10
2023-03-05T07:31:21.694Z,20.97
2023-03-05T07:33:50.604Z,19.77
2023-03-05T07:36:17.961Z,19.43
2023-03-05T07:38:45.308Z,21.37
2023-03-05T07:41:14.488Z,21.00
2023-03-05T07:43:41.407Z,22.77
2023-03-05T07:46:11.309Z,21.40
2023-03-05T07:48:38.157Z,21.90
2023-03-05T07:51:08.610Z,22.03
2023-03-05T07:53:35.517Z,22.00
2023-03-05T07:56:02.408Z,21.90
2023-03-05T07:58:29.700Z,22.03
2023-03-05T08:00:56.572Z,22.77
2023-03-05T08:03:23.629Z,20.87
2023-03-05T08:05:50.458Z,20.03
2023-03-05T08:08:18.544Z,18.87
2023-03-05T08:10:45.766Z,19.40
2023-03-05T08:13:12.878Z,19.40
2023-03-05T08:15:39.901Z,21.73
2023-03-05T08:18:06.830Z,23.10
2023-03-05T08:20:36.943Z,20.40
2023-03-05T08:23:04.497Z,22.03
2023-03-05T08:25:31.910Z,21.67
2023-03-05T08:27:58.825Z,20.50
2023-03-05T08:30:27.462Z,19.23
2023-03-05T08:32:54.841Z,18.57
2023-03-05T08:35:21.993Z,18.83
2023-03-05T08:37:48.967Z,17.27
2023-03-05T08:40:18.210Z,18.83
2023-03-05T08:42:45.212Z,17.57
2023-03-05T08:45:12.890Z,17.07
2023-03-05T08:47:39.762Z,16.47
2023-03-05T08:50:07.008Z,15.73
2023-03-05T08:52:33.997Z,16.97
2023-03-05T08:55:01.972Z,15.63
2023-03-05T08:57:28.711Z,16.73
2023-03-05T08:59:55.511Z,14.90
2023-03-05T09:02:22.978Z,15.17
2023-03-05T09:04:49.876Z,14.93
2023-03-05T09:07:16.608Z,13.63
2023-03-05T09:09:43.532Z,14.27
2023-03-05T09:12:12.332Z,12.87
2023-03-05T09:14:40.459Z,13.60
2023-03-05T09:17:07.769Z,13.10
2023-03-05T09:19:34.568Z,13.00
2023-03-05T09:22:01.513Z,13.23
2023-03-05T09:24:28.307Z,14.20
2023-03-05T09:27:00.290Z,13.67
2023-03-05T09:29:29.476Z,15.17
2023-03-05T09:31:56.370Z,17.60
2023-03-05T09:34:23.865Z,14.97
2023-03-05T09:36:50.753Z,13.90
2023-03-05T09:39:17.615Z,14.23
2023-03-05T09:42:29.109Z,14.17
2023-03-05T09:45:31.428Z,13.67
2023-03-05T09:48:16.751Z,14.63
2023-03-05T09:51:26.048Z,14.80
2023-03-05T09:54:10.867Z,14.73
2023-03-05T09:56:56.987Z,13.33
2023-03-05T09:59:36.376Z,13.10
2023-03-05T10:02:20.790Z,13.43
2023-03-05T10:04:50.494Z,13.57
2023-03-05T10:07:33.603Z,13.70
2023-03-05T10:10:38.040Z,12.03
2023-03-05T10:13:30.932Z,12.30
2023-03-05T10:16:23.653Z,12.03
2023-03-05T10:19:11.678Z,13.30
2023-03-05T10:22:28.274Z,13.30
2023-03-05T10:25:01.121Z,12.43
2023-03-05T10:27:49.104Z,13.03
2023-03-05T10:30:21.829Z,12.07
2023-03-05T10:32:57.587Z,12.03
2023-03-05T10:35:32.735Z,11.90
2023-03-05T10:38:08.343Z,11.50
2023-03-05T10:40:47.993Z,11.33
2023-03-05T10:43:33.340Z,12.30
2023-03-05T10:46:02.781Z,12.33
2023-03-05T10:48:44.935Z,12.50
2023-03-05T10:51:16.372Z,13.30
2023-03-05T10:53:56.573Z,14.20
2023-03-05T10:56:27.078Z,12.43
2023-03-05T10:58:54.744Z,12.20
2023-03-05T11:01:28.048Z,10.73
2023-03-05T11:04:05.244Z,10.37
2023-03-05T11:06:35.188Z,10.87
2023-03-05T11:09:24.600Z,11.47
2023-03-05T11:12:12.901Z,11.27
2023-03-05T11:14:45.839Z,12.10
2023-03-05T11:17:29.784Z,11.00
2023-03-05T11:19:58.652Z,11.03
2023-03-05T11:22:25.904Z,11.60
2023-03-05T11:25:10.313Z,12.23
2023-03-05T11:27:39.530Z,10.63
2023-03-05T11:30:33.284Z,10.00
2023-03-05T11:33:10.879Z,9.80
2023-03-05T11:35:40.911Z,10.93
2023-03-05T11:38:26.591Z,10.17
2023-03-05T11:40:56.556Z,9.57
2023-03-05T11:43:25.964Z,10.90
2023-03-05T11:45:59.520Z,10.80
2023-03-05T11:48:31.935Z,9.73
2023-03-05T11:51:01.338Z,10.37
2023-03-05T11:53:33.105Z,10.10
2023-03-05T11:56:18.993Z,10.00
2023-03-05T11:59:01.396Z,9.23
2023-03-05T12:01:32.146Z,9.47
2023-03-05T12:04:00.122Z,8.50
2023-03-05T12:06:31.154Z,8.50
2023-03-05T12:09:01.871Z,6.93
2023-03-05T12:11:31.697Z,6.07
2023-03-05T12:14:15.249Z,4.90
2023-03-05T12:17:05.038Z,4.50
2023-03-05T12:19:41.280Z,4.60
2023-03-05T12:22:18.815Z,4.83
2023-03-05T12:24:45.858Z,4.83
2023-03-05T12:27:15.876Z,4.90
2023-03-05T12:29:54.403Z,5.63
2023-03-05T12:32:33.281Z,4.87
2023-03-05T12:35:04.379Z,5.40
2023-03-05T12:37:31.230Z,4.83
2023-03-05T12:40:14.184Z,5.47
2023-03-05T12:42:45.304Z,4.47
2023-03-05T12:45:12.415Z,4.97
2023-03-05T12:47:40.740Z,4.43
2023-03-05T12:50:26.501Z,4.33
2023-03-05T12:52:54.591Z,3.13
2023-03-05T12:55:27.307Z,4.27
2023-03-05T12:58:07.266Z,2.40
2023-03-05T13:00:46.677Z,2.53
2023-03-05T13:03:24.217Z,3.97
2023-03-05T13:05:54.337Z,3.17
2023-03-05T13:08:25.544Z,4.60
2023-03-05T13:10:57.046Z,3.27
2023-03-05T13:13:26.467Z,4.33
2023-03-05T13:15:57.216Z,4.30
2023-03-05T13:18:26.981Z,4.37
2023-03-05T13:21:04.721Z,4.40
2023-03-05T13:23:33.245Z,4.47
2023-03-05T13:26:15.476Z,4.40
2023-03-05T13:28:44.952Z,3.50
2023-03-05T13:31:15.889Z,2.93
2023-03-05T13:33:54.300Z,3.90
2023-03-05T13:36:24.011Z,2.57
2023-03-05T13:38:51.339Z,4.07
2023-03-05T13:41:26.944Z,2.53
2023-03-05T13:44:01.993Z,4.33
2023-03-05T13:46:31.391Z,3.90
2023-03-05T13:49:19.373Z,4.17
2023-03-05T13:51:48.784Z,4.03
2023-03-05T13:54:17.801Z,4.20
2023-03-05T13:57:05.984Z,3.73
2023-03-05T13:59:35.325Z,4.27
2023-03-05T14:02:15.786Z,1.93
2023-03-05T14:04:44.900Z,3.87
2023-03-05T14:07:20.969Z,2.67
2023-03-05T14:09:52.228Z,2.50
2023-03-05T14:12:42.577Z,2.57
2023-03-05T14:15:27.918Z,4.13
2023-03-05T14:18:19.256Z,3.90
2023-03-05T14:21:05.720Z,4.27
2023-03-05T14:23:42.936Z,3.20
2023-03-05T14:26:28.224Z,4.33
2023-03-05T14:28:56.987Z,4.23
2023-03-05T14:31:25.810Z,4.07
2023-03-05T14:33:53.842Z,3.33
2023-03-05T14:36:27.872Z,2.23
2023-03-05T14:38:55.227Z,3.40
2023-03-05T14:41:32.995Z,3.80
2023-03-05T14:43:59.919Z,4.30
2023-03-05T14:46:27.242Z,3.83
2023-03-05T14:48:54.440Z,4.37
2023-03-05T14:51:22.857Z,3.97
2023-03-05T14:53:51.168Z,3.30
2023-03-05T14:56:24.545Z,4.63
2023-03-05T14:58:53.929Z,2.53
2023-03-05T15:01:24.381Z,4.47
2023-03-05T15:03:52.506Z,4.70
2023-03-05T15:06:33.059Z,4.17
2023-03-05T15:09:01.177Z,4.67
2023-03-05T15:11:28.230Z,3.40
2023-03-05T15:13:55.000Z,3.73
2023-03-05T15:16:22.750Z,4.27
2023-03-05T15:18:50.116Z,4.37
2023-03-05T15:21:17.557Z,3.10
2023-03-05T15:23:45.269Z,4.10
2023-03-05T15:26:13.927Z,4.27
2023-03-05T15:28:41.918Z,3.93
2023-03-05T15:31:09.343Z,3.83
2023-03-05T15:33:38.743Z,4.93
2023-03-05T15:36:07.302Z,4.53
2023-03-05T15:38:34.435Z,4.73
2023-03-05T15:41:01.910Z,4.60
2023-03-05T15:43:32.656Z,4.70
2023-03-05T15:45:59.875Z,4.03
2023-03-05T15:48:27.639Z,3.70
2023-03-05T15:50:54.545Z,4.77
2023-03-05T15:53:23.243Z,5.00
2023-03-05T15:55:50.476Z,4.70
2023-03-05T15:58:17.608Z,4.47
2023-03-05T16:00:44.637Z,5.10
2023-03-05T16:03:12.605Z,5.00
2023-03-05T16:05:39.498Z,4.07
2023-03-05T16:08:06.746Z,5.03
2023-03-05T16:10:38.671Z,2.60
2023-03-05T16:13:14.392Z,4.03
2023-03-05T16:15:42.479Z,4.83
2023-03-05T16:18:13.570Z,5.30
2023-03-05T16:20:40.410Z,4.93
2023-03-05T16:23:07.551Z,5.23
2023-03-05T16:25:37.754Z,4.97
2023-03-05T16:28:06.196Z,5.13
2023-03-05T16:30:35.234Z,4.40
2023-03-05T16:33:03.356Z,5.17
2023-03-05T16:35:30.855Z,5.13
2023-03-05T16:37:57.650Z,2.80
2023-03-05T16:40:25.906Z,4.57
2023-03-05T16:42:55.854Z,3.97
2023-03-05T16:45:23.716Z,2.63
2023-03-05T16:47:51.995Z,2.20
2023-03-05T16:50:20.885Z,4.00
2023-03-05T16:52:47.670Z,4.23
2023-03-05T16:55:14.527Z,5.43
2023-03-05T16:57:41.484Z,4.73
2023-03-05T17:00:10.761Z,5.63
2023-03-05T17:02:37.749Z,5.07
2023-03-05T17:05:05.283Z,3.30
2023-03-05T17:07:33.090Z,5.70
2023-03-05T17:09:59.918Z,5.90
2023-03-05T17:12:26.793Z,7.00
2023-03-05T17:14:53.608Z,5.77
2023-03-05T17:17:21.368Z,5.77
2023-03-05T17:19:48.315Z,48.83
2023-03-05T17:22:16.211Z,12.67
2023-03-05T17:24:47.218Z,8.83
2023-03-05T17:27:14.512Z,6.30
2023-03-05T17:29:41.344Z,6.40
2023-03-05T17:32:08.186Z,5.63
2023-03-05T17:34:36.844Z,6.03
2023-03-05T17:37:04.907Z,6.20
2023-03-05T17:39:31.708Z,5.30
2023-03-05T17:41:58.663Z,6.03
2023-03-05T17:44:25.450Z,6.43
2023-03-05T17:46:52.391Z,6.50
2023-03-05T17:49:19.224Z,6.10
2023-03-05T17:51:46.140Z,6.17
2023-03-05T17:54:13.006Z,5.43
2023-03-05T17:56:39.773Z,6.37
2023-03-05T17:59:06.726Z,6.23
2023-03-05T18:01:34.894Z,5.90
2023-03-05T18:04:02.213Z,6.03
2023-03-05T18:06:29.881Z,6.27
2023-03-05T18:08:56.836Z,6.20
2023-03-05T18:11:24.423Z,5.87
2023-03-05T18:13:51.158Z,5.60
2023-03-05T18:16:18.414Z,5.87
2023-03-05T18:18:45.667Z,6.13
2023-03-05T18:21:12.661Z,5.53
2023-03-05T18:23:39.440Z,6.00
2023-03-05T18:26:06.351Z,5.80
2023-03-05T18:28:33.284Z,6.13
2023-03-05T18:31:01.023Z,5.93
2023-03-05T18:33:27.874Z,5.30
2023-03-05T18:35:54.714Z,5.60
2023-03-05T18:38:23.724Z,6.20
2023-03-05T18:40:54.084Z,5.93
2023-03-05T18:43:22.126Z,5.30
2023-03-05T18:45:53.955Z,5.67
2023-03-05T18:48:21.145Z,6.07
2023-03-05T18:50:52.625Z,5.83
2023-03-05T18:53:21.631Z,5.63
2023-03-05T18:55:50.935Z,5.80
2023-03-05T18:58:18.689Z,5.80
2023-03-05T19:00:47.087Z,5.30
2023-03-05T19:03:15.297Z,5.67
2023-03-05T19:05:43.115Z,9.20
2023-03-05T19:08:10.121Z,6.50
2023-03-05T19:10:37.353Z,5.43
2023-03-05T19:13:24.312Z,5.57
2023-03-05T19:15:51.709Z,6.50
2023-03-05T19:18:20.460Z,5.93
2023-03-05T19:20:57.179Z,5.70
2023-03-05T19:23:25.338Z,5.93
2023-03-05T19:25:52.122Z,5.40
2023-03-05T19:28:19.505Z,6.30
2023-03-05T19:30:49.825Z,5.40
2023-03-05T19:33:16.730Z,6.30
2023-03-05T19:35:43.674Z,5.57
2023-03-05T19:38:10.504Z,6.37
2023-03-05T19:40:39.686Z,5.83
2023-03-05T19:43:07.173Z,6.00
2023-03-05T19:45:35.027Z,5.40
2023-03-05T19:48:02.424Z,6.00
2023-03-05T19:50:29.491Z,5.37
2023-03-05T19:52:56.184Z,5.67
2023-03-05T19:55:22.922Z,6.43
2023-03-05T19:57:49.818Z,5.93
2023-03-05T20:00:17.080Z,5.70
2023-03-05T20:02:43.906Z,6.17
2023-03-05T20:05:10.768Z,7.80
2023-03-05T20:07:37.624Z,5.07
2023-03-05T20:10:04.826Z,5.50
2023-03-05T20:12:31.734Z,5.80
2023-03-05T20:14:58.590Z,6.40
2023-03-05T20:17:25.433Z,5.77
2023-03-05T20:19:55.332Z,5.87
2023-03-05T20:22:22.196Z,5.60
2023-03-05T20:24:48.929Z,5.80
2023-03-05T20:27:15.699Z,5.43
2023-03-05T20:29:42.469Z,5.93
2023-03-05T20:32:09.351Z,6.50
2023-03-05T20:34:36.085Z,6.63
2023-03-05T20:37:04.963Z,6.17
2023-03-05T20:39:31.944Z,6.17
2023-03-05T20:41:58.795Z,5.67
2023-03-05T20:44:25.581Z,5.70
2023-03-05T20:47:02.782Z,6.53
2023-03-05T20:49:29.645Z,6.10
2023-03-05T20:51:56.516Z,6.20
2023-03-05T20:54:27.201Z,6.57
2023-03-05T20:56:53.974Z,7.33
2023-03-05T20:59:23.206Z,7.23
2023-03-05T21:01:49.960Z,6.33
2023-03-05T21:04:16.770Z,6.07
2023-03-05T21:06:43.647Z,6.20
2023-03-05T21:09:10.368Z,6.20
2023-03-05T21:11:38.022Z,6.43
2023-03-05T21:14:04.883Z,6.97
2023-03-05T21:16:31.682Z,6.03
2023-03-05T21:18:58.558Z,6.03
2023-03-05T21:21:25.583Z,6.47
2023-03-05T21:23:53.364Z,6.40
2023-03-05T21:26:20.216Z,6.20
2023-03-05T21:28:47.022Z,6.67
2023-03-05T21:31:19.584Z,6.60
2023-03-05T21:33:46.784Z,6.77
2023-03-05T21:36:13.574Z,6.23
2023-03-05T21:38:40.628Z,6.87
2023-03-05T21:41:07.453Z,7.10
2023-03-05T21:43:34.623Z,7.03
2023-03-05T21:46:03.041Z,7.00
2023-03-05T21:48:30.826Z,7.40
2023-03-05T21:50:58.495Z,7.27
2023-03-05T21:53:26.065Z,7.40
2023-03-05T21:56:06.273Z,7.23
2023-03-05T21:58:34.804Z,7.00
2023-03-05T22:01:02.149Z,7.40
2023-03-05T22:03:30.290Z,7.70
2023-03-05T22:05:57.253Z,7.70
2023-03-05T22:08:24.641Z,7.57
2023-03-05T22:10:51.673Z,7.87
2023-03-05T22:13:20.118Z,7.93
2023-03-05T22:15:55.783Z,7.80
2023-03-05T22:18:28.373Z,7.30
2023-03-05T22:20:56.332Z,7.83
2023-03-05T22:23:27.182Z,8.53
2023-03-05T22:25:59.181Z,7.23
2023-03-05T22:28:27.191Z,7.53
2023-03-05T22:30:54.257Z,8.23
2023-03-05T22:33:22.970Z,8.33
2023-03-05T22:35:50.137Z,8.07
2023-03-05T22:38:17.549Z,8.43
2023-03-05T22:40:47.090Z,8.87
2023-03-05T22:43:14.680Z,8.07
2023-03-05T22:45:42.152Z,15.90
2023-03-05T22:48:10.062Z,8.20
2023-03-05T22:50:41.803Z,8.10
2023-03-05T22:53:08.748Z,8.43
2023-03-05T22:55:39.825Z,7.80
2023-03-05T22:58:06.606Z,6.97
2023-03-05T23:00:33.522Z,7.80
2023-03-05T23:03:00.313Z,7.27
2023-03-05T23:05:27.062Z,8.10
2023-03-05T23:07:53.800Z,7.07
2023-03-05T23:10:25.606Z,7.27
2023-03-05T23:12:55.473Z,6.93
2023-03-05T23:15:28.291Z,7.20
2023-03-05T23:17:55.645Z,7.10
2023-03-05T23:20:25.833Z,7.70
2023-03-05T23:22:53.643Z,7.47
2023-03-05T23:25:20.767Z,7.37
2023-03-05T23:27:48.234Z,7.03
2023-03-05T23:30:37.097Z,6.70
2023-03-05T23:33:21.520Z,7.20
2023-03-05T23:35:58.816Z,7.23
2023-03-05T23:38:27.608Z,6.37
2023-03-05T23:40:58.495Z,6.67
2023-03-05T23:43:26.480Z,7.93
2023-03-05T23:45:55.044Z,8.53
2023-03-05T23:48:23.844Z,7.80
2023-03-05T23:50:50.737Z,6.90
2023-03-05T23:53:26.589Z,7.83
2023-03-05T23:55:53.980Z,7.00
2023-03-05T23:58:21.570Z,7.70
